sensor_id;sensor_type;location;lat;lon;timestamp;P1;durP1;ratioP1;P2;durP2;ratioP2
41572;SDS011;27286;47.870;19.006;2023-02-01T00:01:26;5.88;;;1.77;;
41572;SDS011;27286;47.870;19.006;2023-02-01T00:03:51;8.45;;;1.63;;
41572;SDS011;27286;47.870;19.006;2023-02-01T00:06:17;6.75;;;1.70;;
41572;SDS011;27286;47.870;19.006;2023-02-01T00:08:42;9.27;;;1.90;;
41572;SDS011;27286;47.870;19.006;2023-02-01T00:11:08;10.27;;;4.15;;
41572;SDS011;27286;47.870;19.006;2023-02-01T00:13:36;8.20;;;2.15;;
41572;SDS011;27286;47.870;19.006;2023-02-01T00:16:04;5.72;;;1.75;;
41572;SDS011;27286;47.870;19.006;2023-02-01T00:18:29;8.55;;;2.13;;
41572;SDS011;27286;47.870;19.006;2023-02-01T00:20:55;6.15;;;1.95;;
41572;SDS011;27286;47.870;19.006;2023-02-01T00:23:20;5.60;;;1.90;;
41572;SDS011;27286;47.870;19.006;2023-02-01T00:25:46;4.60;;;1.90;;
41572;SDS011;27286;47.870;19.006;2023-02-01T00:28:11;4.43;;;2.05;;
41572;SDS011;27286;47.870;19.006;2023-02-01T00:30:37;5.68;;;2.30;;
41572;SDS011;27286;47.870;19.006;2023-02-01T00:33:03;5.07;;;1.35;;
41572;SDS011;27286;47.870;19.006;2023-02-01T00:35:29;4.97;;;1.98;;
41572;SDS011;27286;47.870;19.006;2023-02-01T00:37:54;6.47;;;2.33;;
41572;SDS011;27286;47.870;19.006;2023-02-01T00:40:19;5.53;;;2.05;;
41572;SDS011;27286;47.870;19.006;2023-02-01T00:42:45;7.40;;;2.45;;
41572;SDS011;27286;47.870;19.006;2023-02-01T00:45:10;5.13;;;1.60;;
41572;SDS011;27286;47.870;19.006;2023-02-01T00:47:36;4.03;;;1.55;;
41572;SDS011;27286;47.870;19.006;2023-02-01T00:50:02;4.90;;;2.95;;
41572;SDS011;27286;47.870;19.006;2023-02-01T00:52:27;4.38;;;1.95;;
41572;SDS011;27286;47.870;19.006;2023-02-01T00:54:53;6.68;;;2.20;;
41572;SDS011;27286;47.870;19.006;2023-02-01T00:57:18;4.60;;;1.92;;
41572;SDS011;27286;47.870;19.006;2023-02-01T00:59:43;4.40;;;1.85;;
41572;SDS011;27286;47.870;19.006;2023-02-01T01:02:09;4.80;;;1.70;;
41572;SDS011;27286;47.870;19.006;2023-02-01T01:04:35;5.07;;;1.90;;
41572;SDS011;27286;47.870;19.006;2023-02-01T01:07:01;5.03;;;2.45;;
41572;SDS011;27286;47.870;19.006;2023-02-01T01:09:26;9.15;;;2.10;;
41572;SDS011;27286;47.870;19.006;2023-02-01T01:11:52;4.78;;;3.22;;
41572;SDS011;27286;47.870;19.006;2023-02-01T01:14:17;6.97;;;3.15;;
41572;SDS011;27286;47.870;19.006;2023-02-01T01:16:43;7.13;;;2.33;;
41572;SDS011;27286;47.870;19.006;2023-02-01T01:19:08;10.45;;;2.13;;
41572;SDS011;27286;47.870;19.006;2023-02-01T01:21:34;5.50;;;2.22;;
41572;SDS011;27286;47.870;19.006;2023-02-01T01:23:59;5.97;;;1.60;;
41572;SDS011;27286;47.870;19.006;2023-02-01T01:26:26;7.13;;;2.15;;
41572;SDS011;27286;47.870;19.006;2023-02-01T01:28:54;3.65;;;1.67;;
41572;SDS011;27286;47.870;19.006;2023-02-01T01:31:21;5.78;;;2.28;;
41572;SDS011;27286;47.870;19.006;2023-02-01T01:33:50;5.75;;;1.95;;
41572;SDS011;27286;47.870;19.006;2023-02-01T01:36:18;8.68;;;1.98;;
41572;SDS011;27286;47.870;19.006;2023-02-01T01:38:44;4.53;;;1.98;;
41572;SDS011;27286;47.870;19.006;2023-02-01T01:41:11;4.57;;;2.13;;
41572;SDS011;27286;47.870;19.006;2023-02-01T01:46:23;3.53;;;1.85;;
41572;SDS011;27286;47.870;19.006;2023-02-01T01:49:35;8.15;;;2.13;;
41572;SDS011;27286;47.870;19.006;2023-02-01T01:51:46;5.00;;;2.35;;
41572;SDS011;27286;47.870;19.006;2023-02-01T01:56:54;3.83;;;2.30;;
41572;SDS011;27286;47.870;19.006;2023-02-01T01:59:24;4.82;;;2.17;;
41572;SDS011;27286;47.870;19.006;2023-02-01T02:01:50;5.03;;;2.40;;
41572;SDS011;27286;47.870;19.006;2023-02-01T02:04:17;5.80;;;2.53;;
41572;SDS011;27286;47.870;19.006;2023-02-01T02:06:51;6.28;;;2.40;;
41572;SDS011;27286;47.870;19.006;2023-02-01T02:09:20;4.75;;;2.30;;
41572;SDS011;27286;47.870;19.006;2023-02-01T02:11:46;6.85;;;1.90;;
41572;SDS011;27286;47.870;19.006;2023-02-01T02:14:11;6.75;;;1.63;;
41572;SDS011;27286;47.870;19.006;2023-02-01T02:33:53;4.90;;;2.35;;
41572;SDS011;27286;47.870;19.006;2023-02-01T02:41:45;3.35;;;1.63;;
41572;SDS011;27286;47.870;19.006;2023-02-01T02:44:47;5.93;;;2.45;;
41572;SDS011;27286;47.870;19.006;2023-02-01T02:47:44;4.13;;;2.22;;
41572;SDS011;27286;47.870;19.006;2023-02-01T02:53:20;3.92;;;3.53;;
41572;SDS011;27286;47.870;19.006;2023-02-01T02:56:11;4.57;;;2.38;;
41572;SDS011;27286;47.870;19.006;2023-02-01T02:58:57;4.43;;;1.75;;
41572;SDS011;27286;47.870;19.006;2023-02-01T03:01:42;4.60;;;1.90;;
41572;SDS011;27286;47.870;19.006;2023-02-01T03:04:27;5.18;;;2.13;;
41572;SDS011;27286;47.870;19.006;2023-02-01T03:06:53;5.38;;;2.30;;
41572;SDS011;27286;47.870;19.006;2023-02-01T03:09:21;5.65;;;1.70;;
41572;SDS011;27286;47.870;19.006;2023-02-01T03:11:52;7.70;;;1.85;;
41572;SDS011;27286;47.870;19.006;2023-02-01T03:14:46;4.00;;;1.75;;
41572;SDS011;27286;47.870;19.006;2023-02-01T03:17:15;5.45;;;1.70;;
41572;SDS011;27286;47.870;19.006;2023-02-01T03:19:46;3.67;;;1.73;;
41572;SDS011;27286;47.870;19.006;2023-02-01T03:22:17;3.35;;;1.70;;
41572;SDS011;27286;47.870;19.006;2023-02-01T03:27:40;3.65;;;1.65;;
41572;SDS011;27286;47.870;19.006;2023-02-01T03:32:35;2.65;;;1.60;;
41572;SDS011;27286;47.870;19.006;2023-02-01T03:35:23;4.03;;;1.55;;
41572;SDS011;27286;47.870;19.006;2023-02-01T03:37:55;4.40;;;1.60;;
41572;SDS011;27286;47.870;19.006;2023-02-01T03:40:27;3.70;;;1.42;;
41572;SDS011;27286;47.870;19.006;2023-02-01T03:42:56;2.70;;;1.70;;
41572;SDS011;27286;47.870;19.006;2023-02-01T03:45:27;2.50;;;1.23;;
41572;SDS011;27286;47.870;19.006;2023-02-01T03:48:07;2.33;;;0.80;;
41572;SDS011;27286;47.870;19.006;2023-02-01T03:50:36;3.10;;;1.42;;
41572;SDS011;27286;47.870;19.006;2023-02-01T03:53:06;2.83;;;1.17;;
41572;SDS011;27286;47.870;19.006;2023-02-01T03:55:35;5.07;;;1.70;;
41572;SDS011;27286;47.870;19.006;2023-02-01T03:58:12;4.57;;;1.88;;
41572;SDS011;27286;47.870;19.006;2023-02-01T04:00:39;3.33;;;1.80;;
41572;SDS011;27286;47.870;19.006;2023-02-01T04:03:05;4.13;;;2.20;;
41572;SDS011;27286;47.870;19.006;2023-02-01T04:05:32;2.97;;;1.02;;
41572;SDS011;27286;47.870;19.006;2023-02-01T04:07:58;4.60;;;2.20;;
41572;SDS011;27286;47.870;19.006;2023-02-01T04:10:24;6.55;;;2.72;;
41572;SDS011;27286;47.870;19.006;2023-02-01T04:12:49;2.35;;;1.13;;
41572;SDS011;27286;47.870;19.006;2023-02-01T04:15:15;2.85;;;1.40;;
41572;SDS011;27286;47.870;19.006;2023-02-01T04:17:40;2.85;;;1.70;;
41572;SDS011;27286;47.870;19.006;2023-02-01T04:20:06;2.97;;;1.30;;
41572;SDS011;27286;47.870;19.006;2023-02-01T04:22:32;2.80;;;1.27;;
41572;SDS011;27286;47.870;19.006;2023-02-01T04:24:57;4.05;;;1.70;;
41572;SDS011;27286;47.870;19.006;2023-02-01T04:27:22;2.85;;;1.42;;
41572;SDS011;27286;47.870;19.006;2023-02-01T04:29:48;4.72;;;2.03;;
41572;SDS011;27286;47.870;19.006;2023-02-01T04:32:16;2.85;;;1.40;;
41572;SDS011;27286;47.870;19.006;2023-02-01T04:34:42;5.38;;;1.73;;
41572;SDS011;27286;47.870;19.006;2023-02-01T04:37:07;2.75;;;1.88;;
41572;SDS011;27286;47.870;19.006;2023-02-01T04:39:33;3.75;;;1.67;;
41572;SDS011;27286;47.870;19.006;2023-02-01T04:41:59;2.85;;;1.50;;
41572;SDS011;27286;47.870;19.006;2023-02-01T04:44:24;2.90;;;1.60;;
41572;SDS011;27286;47.870;19.006;2023-02-01T04:46:50;2.28;;;1.15;;
41572;SDS011;27286;47.870;19.006;2023-02-01T04:49:15;4.68;;;1.48;;
41572;SDS011;27286;47.870;19.006;2023-02-01T04:51:41;3.75;;;1.92;;
41572;SDS011;27286;47.870;19.006;2023-02-01T04:54:07;3.70;;;1.42;;
41572;SDS011;27286;47.870;19.006;2023-02-01T04:56:33;5.00;;;1.98;;
41572;SDS011;27286;47.870;19.006;2023-02-01T04:59:02;3.47;;;2.00;;
41572;SDS011;27286;47.870;19.006;2023-02-01T05:01:27;2.63;;;1.40;;
41572;SDS011;27286;47.870;19.006;2023-02-01T05:03:53;3.42;;;1.48;;
41572;SDS011;27286;47.870;19.006;2023-02-01T05:06:19;2.90;;;1.33;;
41572;SDS011;27286;47.870;19.006;2023-02-01T05:08:45;5.07;;;1.20;;
41572;SDS011;27286;47.870;19.006;2023-02-01T05:11:10;4.25;;;1.70;;
41572;SDS011;27286;47.870;19.006;2023-02-01T05:13:56;3.45;;;1.00;;
41572;SDS011;27286;47.870;19.006;2023-02-01T05:16:21;4.05;;;1.67;;
41572;SDS011;27286;47.870;19.006;2023-02-01T05:18:47;4.10;;;1.20;;
41572;SDS011;27286;47.870;19.006;2023-02-01T05:21:12;2.42;;;1.00;;
41572;SDS011;27286;47.870;19.006;2023-02-01T05:23:37;1.70;;;0.80;;
41572;SDS011;27286;47.870;19.006;2023-02-01T05:26:23;5.13;;;2.20;;
41572;SDS011;27286;47.870;19.006;2023-02-01T05:28:49;3.58;;;2.03;;
41572;SDS011;27286;47.870;19.006;2023-02-01T05:31:15;3.45;;;1.70;;
41572;SDS011;27286;47.870;19.006;2023-02-01T05:33:40;1.77;;;0.70;;
41572;SDS011;27286;47.870;19.006;2023-02-01T05:36:06;3.53;;;1.30;;
41572;SDS011;27286;47.870;19.006;2023-02-01T05:38:32;3.10;;;0.70;;
41572;SDS011;27286;47.870;19.006;2023-02-01T05:40:57;5.53;;;1.33;;
41572;SDS011;27286;47.870;19.006;2023-02-01T05:43:23;4.35;;;0.70;;
41572;SDS011;27286;47.870;19.006;2023-02-01T05:45:48;5.70;;;2.72;;
41572;SDS011;27286;47.870;19.006;2023-02-01T05:48:13;7.63;;;3.97;;
41572;SDS011;27286;47.870;19.006;2023-02-01T05:50:39;12.45;;;5.65;;
41572;SDS011;27286;47.870;19.006;2023-02-01T05:53:04;18.95;;;8.93;;
41572;SDS011;27286;47.870;19.006;2023-02-01T05:55:30;5.85;;;2.72;;
41572;SDS011;27286;47.870;19.006;2023-02-01T05:57:55;10.20;;;4.45;;
41572;SDS011;27286;47.870;19.006;2023-02-01T06:00:21;9.23;;;4.30;;
41572;SDS011;27286;47.870;19.006;2023-02-01T06:02:47;5.47;;;2.28;;
41572;SDS011;27286;47.870;19.006;2023-02-01T06:05:12;4.35;;;1.30;;
41572;SDS011;27286;47.870;19.006;2023-02-01T06:07:37;3.78;;;1.30;;
41572;SDS011;27286;47.870;19.006;2023-02-01T06:10:03;4.28;;;1.58;;
41572;SDS011;27286;47.870;19.006;2023-02-01T06:12:29;2.65;;;0.95;;
41572;SDS011;27286;47.870;19.006;2023-02-01T06:14:55;2.55;;;0.90;;
41572;SDS011;27286;47.870;19.006;2023-02-01T06:17:20;3.55;;;0.68;;
41572;SDS011;27286;47.870;19.006;2023-02-01T06:19:46;0.98;;;0.40;;
41572;SDS011;27286;47.870;19.006;2023-02-01T06:22:13;3.08;;;1.00;;
41572;SDS011;27286;47.870;19.006;2023-02-01T06:24:38;2.10;;;0.90;;
41572;SDS011;27286;47.870;19.006;2023-02-01T06:27:05;1.73;;;0.63;;
41572;SDS011;27286;47.870;19.006;2023-02-01T06:29:32;2.33;;;0.65;;
41572;SDS011;27286;47.870;19.006;2023-02-01T06:31:57;4.90;;;0.60;;
41572;SDS011;27286;47.870;19.006;2023-02-01T06:34:23;1.50;;;0.50;;
41572;SDS011;27286;47.870;19.006;2023-02-01T06:36:49;4.35;;;1.25;;
41572;SDS011;27286;47.870;19.006;2023-02-01T06:39:14;2.40;;;0.60;;
41572;SDS011;27286;47.870;19.006;2023-02-01T06:41:41;2.35;;;0.55;;
41572;SDS011;27286;47.870;19.006;2023-02-01T06:44:16;2.17;;;1.02;;
41572;SDS011;27286;47.870;19.006;2023-02-01T06:46:41;3.13;;;1.17;;
41572;SDS011;27286;47.870;19.006;2023-02-01T06:49:07;3.28;;;1.10;;
41572;SDS011;27286;47.870;19.006;2023-02-01T06:51:33;4.00;;;1.20;;
41572;SDS011;27286;47.870;19.006;2023-02-01T06:53:59;3.97;;;1.67;;
41572;SDS011;27286;47.870;19.006;2023-02-01T06:56:25;2.05;;;1.00;;
41572;SDS011;27286;47.870;19.006;2023-02-01T06:58:51;2.85;;;1.02;;
41572;SDS011;27286;47.870;19.006;2023-02-01T07:01:16;2.50;;;0.95;;
41572;SDS011;27286;47.870;19.006;2023-02-01T07:03:42;1.98;;;0.80;;
41572;SDS011;27286;47.870;19.006;2023-02-01T07:06:08;2.65;;;1.48;;
41572;SDS011;27286;47.870;19.006;2023-02-01T07:08:35;3.25;;;1.08;;
41572;SDS011;27286;47.870;19.006;2023-02-01T07:11:06;7.47;;;4.35;;
41572;SDS011;27286;47.870;19.006;2023-02-01T07:13:33;11.40;;;6.50;;
41572;SDS011;27286;47.870;19.006;2023-02-01T07:16:03;6.53;;;3.28;;
41572;SDS011;27286;47.870;19.006;2023-02-01T07:18:30;22.35;;;9.23;;
41572;SDS011;27286;47.870;19.006;2023-02-01T07:20:57;22.13;;;11.98;;
41572;SDS011;27286;47.870;19.006;2023-02-01T07:23:23;3.85;;;1.60;;
41572;SDS011;27286;47.870;19.006;2023-02-01T07:25:52;8.13;;;3.97;;
41572;SDS011;27286;47.870;19.006;2023-02-01T07:28:22;10.35;;;5.78;;
41572;SDS011;27286;47.870;19.006;2023-02-01T07:30:48;5.15;;;2.67;;
41572;SDS011;27286;47.870;19.006;2023-02-01T07:33:24;12.02;;;6.65;;
41572;SDS011;27286;47.870;19.006;2023-02-01T07:35:51;11.63;;;7.10;;
41572;SDS011;27286;47.870;19.006;2023-02-01T07:38:17;24.75;;;12.85;;
41572;SDS011;27286;47.870;19.006;2023-02-01T07:40:42;14.77;;;7.53;;
41572;SDS011;27286;47.870;19.006;2023-02-01T07:43:08;11.25;;;6.47;;
41572;SDS011;27286;47.870;19.006;2023-02-01T07:45:35;7.70;;;4.43;;
41572;SDS011;27286;47.870;19.006;2023-02-01T07:48:01;6.65;;;2.45;;
41572;SDS011;27286;47.870;19.006;2023-02-01T07:50:27;4.25;;;2.35;;
41572;SDS011;27286;47.870;19.006;2023-02-01T07:52:53;6.00;;;2.45;;
41572;SDS011;27286;47.870;19.006;2023-02-01T07:55:19;5.35;;;2.08;;
41572;SDS011;27286;47.870;19.006;2023-02-01T07:57:45;3.80;;;1.73;;
41572;SDS011;27286;47.870;19.006;2023-02-01T08:00:11;3.60;;;1.85;;
41572;SDS011;27286;47.870;19.006;2023-02-01T08:02:58;2.83;;;1.25;;
41572;SDS011;27286;47.870;19.006;2023-02-01T08:05:24;6.43;;;1.08;;
41572;SDS011;27286;47.870;19.006;2023-02-01T08:07:50;12.73;;;7.47;;
41572;SDS011;27286;47.870;19.006;2023-02-01T08:10:16;10.35;;;4.95;;
41572;SDS011;27286;47.870;19.006;2023-02-01T08:12:43;6.30;;;3.20;;
41572;SDS011;27286;47.870;19.006;2023-02-01T08:15:13;11.90;;;6.93;;
41572;SDS011;27286;47.870;19.006;2023-02-01T08:17:39;12.52;;;7.85;;
41572;SDS011;27286;47.870;19.006;2023-02-01T08:20:05;7.18;;;4.63;;
41572;SDS011;27286;47.870;19.006;2023-02-01T08:22:31;8.00;;;4.80;;
41572;SDS011;27286;47.870;19.006;2023-02-01T08:24:57;8.45;;;5.38;;
41572;SDS011;27286;47.870;19.006;2023-02-01T08:27:26;4.05;;;2.00;;
41572;SDS011;27286;47.870;19.006;2023-02-01T08:29:52;4.72;;;2.30;;
41572;SDS011;27286;47.870;19.006;2023-02-01T08:32:18;6.10;;;2.03;;
41572;SDS011;27286;47.870;19.006;2023-02-01T08:34:43;5.55;;;3.30;;
41572;SDS011;27286;47.870;19.006;2023-02-01T08:37:09;5.05;;;2.65;;
41572;SDS011;27286;47.870;19.006;2023-02-01T08:39:34;2.33;;;1.15;;
41572;SDS011;27286;47.870;19.006;2023-02-01T08:42:01;5.03;;;1.38;;
41572;SDS011;27286;47.870;19.006;2023-02-01T08:44:45;3.72;;;1.80;;
41572;SDS011;27286;47.870;19.006;2023-02-01T08:47:12;4.75;;;2.20;;
41572;SDS011;27286;47.870;19.006;2023-02-01T08:49:37;3.08;;;1.02;;
41572;SDS011;27286;47.870;19.006;2023-02-01T08:52:03;2.47;;;0.70;;
41572;SDS011;27286;47.870;19.006;2023-02-01T08:54:28;3.63;;;1.30;;
41572;SDS011;27286;47.870;19.006;2023-02-01T08:56:54;3.55;;;1.75;;
41572;SDS011;27286;47.870;19.006;2023-02-01T08:59:19;3.30;;;1.38;;
41572;SDS011;27286;47.870;19.006;2023-02-01T09:01:45;4.15;;;1.10;;
41572;SDS011;27286;47.870;19.006;2023-02-01T09:04:10;3.55;;;2.03;;
41572;SDS011;27286;47.870;19.006;2023-02-01T09:06:36;3.13;;;1.25;;
41572;SDS011;27286;47.870;19.006;2023-02-01T09:09:01;4.38;;;2.28;;
41572;SDS011;27286;47.870;19.006;2023-02-01T09:11:27;5.75;;;1.63;;
41572;SDS011;27286;47.870;19.006;2023-02-01T09:13:52;3.35;;;1.23;;
41572;SDS011;27286;47.870;19.006;2023-02-01T09:16:18;9.68;;;6.10;;
41572;SDS011;27286;47.870;19.006;2023-02-01T09:18:45;4.40;;;1.92;;
41572;SDS011;27286;47.870;19.006;2023-02-01T09:21:10;3.95;;;1.58;;
41572;SDS011;27286;47.870;19.006;2023-02-01T09:23:36;5.65;;;1.60;;
41572;SDS011;27286;47.870;19.006;2023-02-01T09:26:02;3.78;;;1.42;;
41572;SDS011;27286;47.870;19.006;2023-02-01T09:28:30;8.25;;;3.60;;
41572;SDS011;27286;47.870;19.006;2023-02-01T09:30:59;4.13;;;2.13;;
41572;SDS011;27286;47.870;19.006;2023-02-01T09:33:26;9.40;;;3.95;;
41572;SDS011;27286;47.870;19.006;2023-02-01T09:35:56;6.10;;;2.90;;
41572;SDS011;27286;47.870;19.006;2023-02-01T09:38:26;6.25;;;1.60;;
41572;SDS011;27286;47.870;19.006;2023-02-01T09:40:52;5.60;;;1.70;;
41572;SDS011;27286;47.870;19.006;2023-02-01T09:43:41;5.07;;;2.40;;
41572;SDS011;27286;47.870;19.006;2023-02-01T09:46:16;7.35;;;3.10;;
41572;SDS011;27286;47.870;19.006;2023-02-01T09:48:46;3.25;;;1.73;;
41572;SDS011;27286;47.870;19.006;2023-02-01T09:51:18;5.38;;;2.38;;
41572;SDS011;27286;47.870;19.006;2023-02-01T09:53:52;5.75;;;3.63;;
41572;SDS011;27286;47.870;19.006;2023-02-01T09:56:25;9.55;;;4.82;;
41572;SDS011;27286;47.870;19.006;2023-02-01T10:01:27;4.45;;;2.88;;
41572;SDS011;27286;47.870;19.006;2023-02-01T10:04:05;5.03;;;1.85;;
41572;SDS011;27286;47.870;19.006;2023-02-01T10:15:05;5.33;;;3.93;;
41572;SDS011;27286;47.870;19.006;2023-02-01T10:23:43;13.57;;;7.30;;
41572;SDS011;27286;47.870;19.006;2023-02-01T10:26:23;7.20;;;4.63;;
41572;SDS011;27286;47.870;19.006;2023-02-01T10:28:51;6.72;;;3.78;;
41572;SDS011;27286;47.870;19.006;2023-02-01T10:31:18;10.43;;;4.07;;
41572;SDS011;27286;47.870;19.006;2023-02-01T10:33:51;8.25;;;4.57;;
41572;SDS011;27286;47.870;19.006;2023-02-01T10:36:40;6.53;;;3.75;;
41572;SDS011;27286;47.870;19.006;2023-02-01T10:39:15;8.10;;;4.32;;
41572;SDS011;27286;47.870;19.006;2023-02-01T10:41:41;7.50;;;4.57;;
41572;SDS011;27286;47.870;19.006;2023-02-01T10:44:11;7.05;;;2.90;;
41572;SDS011;27286;47.870;19.006;2023-02-01T10:46:59;4.25;;;1.60;;
41572;SDS011;27286;47.870;19.006;2023-02-01T10:49:26;5.00;;;1.70;;
41572;SDS011;27286;47.870;19.006;2023-02-01T10:54:33;5.00;;;1.15;;
41572;SDS011;27286;47.870;19.006;2023-02-01T10:57:04;6.93;;;1.63;;
41572;SDS011;27286;47.870;19.006;2023-02-01T10:59:55;14.90;;;6.65;;
41572;SDS011;27286;47.870;19.006;2023-02-01T11:04:58;24.02;;;13.13;;
41572;SDS011;27286;47.870;19.006;2023-02-01T11:07:28;20.25;;;11.52;;
41572;SDS011;27286;47.870;19.006;2023-02-01T11:09:54;13.38;;;6.70;;
41572;SDS011;27286;47.870;19.006;2023-02-01T11:12:31;13.18;;;6.97;;
41572;SDS011;27286;47.870;19.006;2023-02-01T11:15:43;9.35;;;4.03;;
41572;SDS011;27286;47.870;19.006;2023-02-01T11:17:51;8.70;;;3.75;;
41572;SDS011;27286;47.870;19.006;2023-02-01T11:22:57;11.75;;;3.53;;
41572;SDS011;27286;47.870;19.006;2023-02-01T11:25:22;14.15;;;6.65;;
41572;SDS011;27286;47.870;19.006;2023-02-01T11:27:50;7.13;;;3.53;;
41572;SDS011;27286;47.870;19.006;2023-02-01T11:30:18;11.55;;;3.70;;
41572;SDS011;27286;47.870;19.006;2023-02-01T11:32:51;7.80;;;3.35;;
41572;SDS011;27286;47.870;19.006;2023-02-01T11:35:18;8.98;;;4.88;;
41572;SDS011;27286;47.870;19.006;2023-02-01T11:37:48;6.93;;;3.13;;
41572;SDS011;27286;47.870;19.006;2023-02-01T11:40:38;8.55;;;4.10;;
41572;SDS011;27286;47.870;19.006;2023-02-01T11:45:56;8.95;;;4.78;;
41572;SDS011;27286;47.870;19.006;2023-02-01T11:48:25;8.00;;;4.30;;
41572;SDS011;27286;47.870;19.006;2023-02-01T11:51:14;5.13;;;2.05;;
41572;SDS011;27286;47.870;19.006;2023-02-01T11:56:47;8.88;;;5.50;;
41572;SDS011;27286;47.870;19.006;2023-02-01T11:59:31;10.57;;;5.75;;
41572;SDS011;27286;47.870;19.006;2023-02-01T12:02:09;9.13;;;4.00;;
41572;SDS011;27286;47.870;19.006;2023-02-01T12:16:46;22.48;;;12.00;;
41572;SDS011;27286;47.870;19.006;2023-02-01T12:20:01;16.55;;;10.52;;
41572;SDS011;27286;47.870;19.006;2023-02-01T12:36:49;11.38;;;6.72;;
41572;SDS011;27286;47.870;19.006;2023-02-01T12:39:35;7.68;;;4.65;;
41572;SDS011;27286;47.870;19.006;2023-02-01T12:44:50;7.97;;;5.63;;
41572;SDS011;27286;47.870;19.006;2023-02-01T12:47:35;10.40;;;6.80;;
41572;SDS011;27286;47.870;19.006;2023-02-01T12:52:54;12.52;;;7.13;;
41572;SDS011;27286;47.870;19.006;2023-02-01T12:55:38;16.50;;;10.20;;
41572;SDS011;27286;47.870;19.006;2023-02-01T12:58:21;7.85;;;4.38;;
41572;SDS011;27286;47.870;19.006;2023-02-01T13:01:11;6.80;;;3.70;;
41572;SDS011;27286;47.870;19.006;2023-02-01T13:03:53;7.25;;;4.00;;
41572;SDS011;27286;47.870;19.006;2023-02-01T13:06:29;9.38;;;4.72;;
41572;SDS011;27286;47.870;19.006;2023-02-01T13:11:34;5.63;;;3.10;;
41572;SDS011;27286;47.870;19.006;2023-02-01T13:16:39;4.75;;;3.05;;
41572;SDS011;27286;47.870;19.006;2023-02-01T13:21:43;6.22;;;3.58;;
41572;SDS011;27286;47.870;19.006;2023-02-01T13:27:10;5.95;;;2.20;;
41572;SDS011;27286;47.870;19.006;2023-02-01T13:29:37;5.32;;;1.88;;
41572;SDS011;27286;47.870;19.006;2023-02-01T13:44:02;2.13;;;0.80;;
41572;SDS011;27286;47.870;19.006;2023-02-01T13:46:37;1.52;;;0.30;;
41572;SDS011;27286;47.870;19.006;2023-02-01T13:49:06;1.00;;;0.20;;
41572;SDS011;27286;47.870;19.006;2023-02-01T13:51:42;0.45;;;0.00;;
41572;SDS011;27286;47.870;19.006;2023-02-01T13:54:25;0.28;;;0.00;;
41572;SDS011;27286;47.870;19.006;2023-02-01T13:56:53;0.40;;;0.00;;
41572;SDS011;27286;47.870;19.006;2023-02-01T14:07:29;1.95;;;0.73;;
41572;SDS011;27286;47.870;19.006;2023-02-01T14:09:55;5.35;;;1.58;;
41572;SDS011;27286;47.870;19.006;2023-02-01T14:15:17;3.78;;;0.40;;
41572;SDS011;27286;47.870;19.006;2023-02-01T14:23:17;8.38;;;2.97;;
41572;SDS011;27286;47.870;19.006;2023-02-01T14:26:01;15.95;;;5.45;;
41572;SDS011;27286;47.870;19.006;2023-02-01T14:28:29;20.60;;;8.85;;
41572;SDS011;27286;47.870;19.006;2023-02-01T14:30:56;11.85;;;4.22;;
41572;SDS011;27286;47.870;19.006;2023-02-01T14:33:26;12.52;;;5.80;;
41572;SDS011;27286;47.870;19.006;2023-02-01T14:36:03;9.63;;;4.15;;
41572;SDS011;27286;47.870;19.006;2023-02-01T14:38:30;6.78;;;1.73;;
41572;SDS011;27286;47.870;19.006;2023-02-01T14:41:10;8.13;;;2.50;;
41572;SDS011;27286;47.870;19.006;2023-02-01T14:43:49;3.65;;;1.30;;
41572;SDS011;27286;47.870;19.006;2023-02-01T14:49:42;3.72;;;1.00;;
41572;SDS011;27286;47.870;19.006;2023-02-01T14:52:23;3.53;;;1.10;;
41572;SDS011;27286;47.870;19.006;2023-02-01T14:54:55;4.20;;;1.05;;
41572;SDS011;27286;47.870;19.006;2023-02-01T14:57:25;7.40;;;1.55;;
41572;SDS011;27286;47.870;19.006;2023-02-01T15:02:49;6.03;;;1.88;;
41572;SDS011;27286;47.870;19.006;2023-02-01T15:05:22;4.68;;;2.00;;
41572;SDS011;27286;47.870;19.006;2023-02-01T15:07:50;5.60;;;2.08;;
41572;SDS011;27286;47.870;19.006;2023-02-01T15:10:17;3.03;;;0.60;;
41572;SDS011;27286;47.870;19.006;2023-02-01T15:12:46;8.00;;;1.70;;
41572;SDS011;27286;47.870;19.006;2023-02-01T15:17:57;4.50;;;1.83;;
41572;SDS011;27286;47.870;19.006;2023-02-01T15:20:29;3.92;;;1.45;;
41572;SDS011;27286;47.870;19.006;2023-02-01T15:25:32;4.68;;;1.17;;
41572;SDS011;27286;47.870;19.006;2023-02-01T15:28:01;9.25;;;2.92;;
41572;SDS011;27286;47.870;19.006;2023-02-01T15:30:29;10.13;;;3.40;;
41572;SDS011;27286;47.870;19.006;2023-02-01T15:33:04;5.22;;;2.40;;
41572;SDS011;27286;47.870;19.006;2023-02-01T15:35:31;4.80;;;1.25;;
41572;SDS011;27286;47.870;19.006;2023-02-01T15:40:58;8.00;;;2.20;;
41572;SDS011;27286;47.870;19.006;2023-02-01T15:43:28;5.32;;;2.40;;
41572;SDS011;27286;47.870;19.006;2023-02-01T15:45:56;4.97;;;1.75;;
41572;SDS011;27286;47.870;19.006;2023-02-01T15:48:24;5.70;;;2.30;;
41572;SDS011;27286;47.870;19.006;2023-02-01T15:50:52;3.67;;;1.48;;
41572;SDS011;27286;47.870;19.006;2023-02-01T15:53:21;9.60;;;3.00;;
41572;SDS011;27286;47.870;19.006;2023-02-01T15:55:52;7.50;;;2.03;;
41572;SDS011;27286;47.870;19.006;2023-02-01T15:58:21;6.82;;;2.60;;
41572;SDS011;27286;47.870;19.006;2023-02-01T16:03:37;5.82;;;1.70;;
41572;SDS011;27286;47.870;19.006;2023-02-01T16:06:10;4.72;;;1.08;;
41572;SDS011;27286;47.870;19.006;2023-02-01T16:11:29;5.63;;;2.22;;
41572;SDS011;27286;47.870;19.006;2023-02-01T16:13:57;4.68;;;1.40;;
41572;SDS011;27286;47.870;19.006;2023-02-01T16:16:24;5.93;;;2.38;;
41572;SDS011;27286;47.870;19.006;2023-02-01T16:21:18;7.70;;;2.85;;
41572;SDS011;27286;47.870;19.006;2023-02-01T16:23:47;5.97;;;1.70;;
41572;SDS011;27286;47.870;19.006;2023-02-01T16:26:14;6.95;;;1.90;;
41572;SDS011;27286;47.870;19.006;2023-02-01T16:28:39;3.50;;;1.02;;
41572;SDS011;27286;47.870;19.006;2023-02-01T16:31:05;9.73;;;2.50;;
41572;SDS011;27286;47.870;19.006;2023-02-01T16:33:33;7.28;;;2.47;;
41572;SDS011;27286;47.870;19.006;2023-02-01T16:35:58;10.02;;;3.13;;
41572;SDS011;27286;47.870;19.006;2023-02-01T16:38:27;9.85;;;4.65;;
41572;SDS011;27286;47.870;19.006;2023-02-01T16:40:52;11.30;;;2.78;;
41572;SDS011;27286;47.870;19.006;2023-02-01T16:43:19;6.68;;;3.20;;
41572;SDS011;27286;47.870;19.006;2023-02-01T16:45:47;5.10;;;1.88;;
41572;SDS011;27286;47.870;19.006;2023-02-01T16:48:19;7.40;;;2.55;;
41572;SDS011;27286;47.870;19.006;2023-02-01T16:50:46;8.60;;;3.83;;
41572;SDS011;27286;47.870;19.006;2023-02-01T16:53:17;3.25;;;1.30;;
41572;SDS011;27286;47.870;19.006;2023-02-01T16:55:43;8.70;;;2.67;;
41572;SDS011;27286;47.870;19.006;2023-02-01T16:58:09;7.93;;;3.55;;
41572;SDS011;27286;47.870;19.006;2023-02-01T17:00:35;6.07;;;3.15;;
41572;SDS011;27286;47.870;19.006;2023-02-01T17:03:02;10.38;;;7.25;;
41572;SDS011;27286;47.870;19.006;2023-02-01T17:05:30;8.93;;;3.38;;
41572;SDS011;27286;47.870;19.006;2023-02-01T17:07:57;13.13;;;7.65;;
41572;SDS011;27286;47.870;19.006;2023-02-01T17:10:28;7.38;;;2.90;;
41572;SDS011;27286;47.870;19.006;2023-02-01T17:12:55;7.40;;;2.03;;
41572;SDS011;27286;47.870;19.006;2023-02-01T17:15:23;6.25;;;1.30;;
41572;SDS011;27286;47.870;19.006;2023-02-01T17:17:51;5.32;;;2.30;;
41572;SDS011;27286;47.870;19.006;2023-02-01T17:20:20;3.75;;;0.77;;
41572;SDS011;27286;47.870;19.006;2023-02-01T17:22:48;7.78;;;3.75;;
41572;SDS011;27286;47.870;19.006;2023-02-01T17:25:18;9.30;;;3.80;;
41572;SDS011;27286;47.870;19.006;2023-02-01T17:27:51;8.52;;;3.50;;